Time;durP1;ratioP1;P1;durP2;ratioP2;P2;SDS_P1;SDS_P2;PMS_P1;PMS_P2;Temp;Humidity;BMP_temperature;BMP_pressure;BME280_temperature;BME280_humidity;BME280_pressure;Samples;Min_cycle;Max_cycle;Signal;HPM_P1;HPM_P2
2022/04/06 00:01:19;;;;;;;10.27;8.73;;;9.30;99.90;;;;;;5096714;28;20378;-87
2022/04/06 00:03:45;;;;;;;5.33;4.83;;;9.30;99.90;;;;;;5095751;28;20868;-87
2022/04/06 00:06:11;;;;;;;4.87;4.47;;;9.20;99.90;;;;;;5078821;28;20398;-87
2022/04/06 00:08:36;;;;;;;4.80;4.40;;;9.10;99.90;;;;;;5097897;28;20438;-86
2022/04/06 00:11:02;;;;;;;4.77;4.20;;;9.20;99.90;;;;;;5069549;28;20404;-87
2022/04/06 00:13:29;;;;;;;4.70;4.30;;;9.20;99.90;;;;;;5096975;28;20734;-87
2022/04/06 00:15:54;;;;;;;4.70;4.30;;;9.50;99.90;;;;;;5080624;28;20389;-86
2022/04/06 00:18:20;;;;;;;4.93;4.53;;;9.00;99.90;;;;;;5097827;28;20415;-87
2022/04/06 00:20:47;;;;;;;4.70;4.30;;;9.80;99.90;;;;;;5098109;28;20465;-87
2022/04/06 00:23:14;;;;;;;5.20;4.47;;;9.20;99.90;;;;;;5098439;28;20442;-87
2022/04/06 00:25:40;;;;;;;4.50;4.20;;;9.40;99.90;;;;;;5098498;28;20482;-87
2022/04/06 00:28:06;;;;;;;4.50;4.10;;;9.30;99.90;;;;;;5097333;28;20475;-87
2022/04/06 00:30:31;;;;;;;4.60;4.20;;;9.40;99.90;;;;;;5079785;28;20864;-86
2022/04/06 00:32:57;;;;;;;4.70;4.30;;;9.40;99.90;;;;;;5098588;28;20864;-86
2022/04/06 00:35:28;;;;;;;4.40;4.00;;;9.30;99.90;;;;;;5079784;28;20745;-87
2022/04/06 00:41:07;;;;;;;4.67;4.33;;;9.20;99.90;;;;;;5093154;28;21010;-86
2022/04/06 00:43:33;;;;;;;5.20;4.70;;;9.10;99.90;;;;;;5097900;28;20386;-87
2022/04/06 00:45:58;;;;;;;4.73;4.43;;;9.00;99.90;;;;;;5098279;28;20892;-87
2022/04/06 00:48:24;;;;;;;4.37;4.07;;;9.00;99.90;;;;;;5099257;28;20471;-86
2022/04/06 00:50:50;;;;;;;5.17;4.53;;;9.00;99.90;;;;;;5097512;28;20389;-87
2022/04/06 00:53:15;;;;;;;4.70;4.30;;;8.90;99.90;;;;;;5097893;28;20418;-87
2022/04/06 00:55:41;;;;;;;5.10;4.70;;;9.00;99.90;;;;;;5097887;28;20390;-87
2022/04/06 00:58:08;;;;;;;4.80;4.40;;;9.10;99.90;;;;;;5096995;28;20952;-87
2022/04/06 01:00:34;;;;;;;5.22;4.72;;;9.70;99.90;;;;;;5079836;28;20386;-87
2022/04/06 01:03:00;;;;;;;4.70;4.30;;;9.20;99.90;;;;;;5097735;28;20401;-87
2022/04/06 01:05:25;;;;;;;5.15;4.65;;;9.10;99.90;;;;;;5097518;28;20405;-86
2022/04/06 01:07:52;;;;;;;5.07;4.68;;;9.10;99.90;;;;;;5097667;28;20378;-87
2022/04/06 01:10:18;;;;;;;5.00;4.60;;;9.10;99.90;;;;;;5107068;28;20627;-86
2022/04/06 01:12:48;;;;;;;4.95;4.47;;;9.20;99.90;;;;;;5105019;28;20907;-87
2022/04/06 01:15:15;;;;;;;4.97;4.55;;;9.10;99.90;;;;;;5094516;28;20488;-87
2022/04/06 01:17:42;;;;;;;5.22;4.70;;;8.90;99.90;;;;;;5118348;28;20473;-87
2022/04/06 01:20:09;;;;;;;5.63;5.22;;;9.10;99.90;;;;;;5118137;28;20746;-87
2022/04/06 01:22:36;;;;;;;5.60;5.10;;;9.10;99.90;;;;;;5116855;28;20380;-87
2022/04/06 01:25:03;;;;;;;5.82;4.97;;;9.00;99.90;;;;;;5118328;28;20415;-87
2022/04/06 01:27:29;;;;;;;5.55;4.72;;;9.00;99.90;;;;;;5118956;28;20855;-87
2022/04/06 01:29:55;;;;;;;5.72;5.28;;;9.00;99.90;;;;;;5118041;28;20414;-87
2022/04/06 01:32:22;;;;;;;5.77;5.27;;;8.90;99.90;;;;;;5118362;28;20425;-87
2022/04/06 01:34:49;;;;;;;5.32;4.82;;;8.90;99.90;;;;;;5120024;28;20863;-86
2022/04/06 01:37:16;;;;;;;5.23;4.83;;;8.90;99.90;;;;;;5105199;28;20430;-87
2022/04/06 01:39:45;;;;;;;5.43;5.03;;;8.90;99.90;;;;;;5100869;28;20461;-86
2022/04/06 01:42:12;;;;;;;5.40;5.00;;;8.80;99.90;;;;;;5101206;28;20469;-87
2022/04/06 01:44:38;;;;;;;5.72;5.32;;;8.80;99.90;;;;;;5101246;28;20374;-87
2022/04/06 01:47:06;;;;;;;6.88;5.53;;;8.80;99.90;;;;;;5101188;28;20398;-86
2022/04/06 01:52:17;;;;;;;6.10;5.60;;;9.20;99.90;;;;;;5102212;28;20400;-86
2022/04/06 01:54:48;;;;;;;5.55;5.15;;;8.80;99.90;;;;;;5101825;28;20374;-87
2022/04/06 01:57:15;;;;;;;6.15;5.55;;;8.80;99.90;;;;;;5100830;28;20386;-87
2022/04/06 01:59:41;;;;;;;5.20;4.75;;;8.80;99.90;;;;;;5100491;28;20378;-87
2022/04/06 02:02:10;;;;;;;5.47;5.07;;;8.90;99.90;;;;;;5082275;28;20413;-87
2022/04/06 02:04:37;;;;;;;5.18;4.70;;;8.90;99.90;;;;;;5100668;28;20423;-86
2022/04/06 02:07:04;;;;;;;5.38;4.97;;;8.90;99.90;;;;;;5100706;28;20454;-86
2022/04/06 02:09:29;;;;;;;5.28;4.80;;;8.90;99.90;;;;;;5100740;28;20465;-86
2022/04/06 02:11:55;;;;;;;6.88;4.93;;;8.90;99.90;;;;;;5100223;28;20463;-87
2022/04/06 02:14:23;;;;;;;5.43;4.93;;;8.90;99.90;;;;;;5098596;28;20408;-87
2022/04/06 02:16:49;;;;;;;5.33;4.83;;;8.90;99.90;;;;;;5098321;28;20477;-87
2022/04/06 02:19:15;;;;;;;5.43;4.93;;;8.90;99.90;;;;;;5099345;28;20748;-87
2022/04/06 02:21:41;;;;;;;5.28;4.88;;;8.90;99.90;;;;;;5098764;28;20382;-87
2022/04/06 02:24:07;;;;;;;6.13;5.38;;;8.90;99.90;;;;;;5099783;28;20386;-87
2022/04/06 02:26:33;;;;;;;5.68;5.18;;;8.80;99.90;;;;;;5099676;28;20406;-87
2022/04/06 02:29:00;;;;;;;5.93;5.43;;;9.50;99.90;;;;;;5100229;28;20895;-87
2022/04/06 02:31:25;;;;;;;5.60;5.20;;;8.80;99.90;;;;;;5099023;28;20374;-87
2022/04/06 02:33:52;;;;;;;5.33;4.83;;;8.80;99.90;;;;;;5099606;28;20752;-87
2022/04/06 02:36:17;;;;;;;5.88;5.38;;;9.10;99.90;;;;;;5103783;28;20382;-86
2022/04/06 02:38:44;;;;;;;5.63;5.13;;;8.90;99.90;;;;;;5108538;28;20382;-87
2022/04/06 02:41:10;;;;;;;5.95;5.40;;;8.80;99.90;;;;;;5120213;28;20467;-86
2022/04/06 02:43:36;;;;;;;5.63;5.13;;;9.70;99.90;;;;;;5122572;28;20396;-86
2022/04/06 02:46:02;;;;;;;5.50;5.00;;;8.80;99.90;;;;;;5120483;28;20400;-86
2022/04/06 02:48:28;;;;;;;5.55;5.15;;;8.90;99.90;;;;;;5119939;28;20506;-87
2022/04/06 02:50:54;;;;;;;5.57;5.18;;;8.80;99.90;;;;;;5117495;28;20438;-87
2022/04/06 02:53:20;;;;;;;5.57;5.07;;;8.90;99.90;;;;;;5119804;28;20376;-86
2022/04/06 02:55:45;;;;;;;5.47;4.90;;;9.20;99.90;;;;;;5113127;28;20394;-87
2022/04/06 02:58:11;;;;;;;5.63;5.13;;;8.90;99.90;;;;;;5099247;28;20382;-87
2022/04/06 03:00:37;;;;;;;5.50;5.00;;;9.10;99.90;;;;;;5081175;28;20397;-87
2022/04/06 03:03:03;;;;;;;5.90;5.32;;;9.40;99.90;;;;;;5099430;28;20449;-86
2022/04/06 03:05:29;;;;;;;6.07;5.53;;;8.90;99.90;;;;;;5100351;28;20810;-87
2022/04/06 03:07:55;;;;;;;6.03;5.43;;;8.90;99.90;;;;;;5100338;28;20382;-87
2022/04/06 03:10:21;;;;;;;5.13;4.73;;;9.00;99.90;;;;;;5099234;28;20384;-86
2022/04/06 03:12:46;;;;;;;5.87;5.40;;;9.20;99.90;;;;;;5099127;28;20451;-86
2022/04/06 03:15:12;;;;;;;5.90;5.40;;;8.90;99.90;;;;;;5099211;28;20777;-87
2022/04/06 03:17:38;;;;;;;5.53;5.03;;;9.00;99.90;;;;;;5080978;28;20396;-86
2022/04/06 03:20:06;;;;;;;5.80;5.30;;;9.50;99.90;;;;;;5098108;28;20386;-86
2022/04/06 03:22:31;;;;;;;6.45;5.43;;;8.90;99.90;;;;;;5098224;28;20410;-86
2022/04/06 03:24:57;;;;;;;6.30;5.70;;;9.00;99.90;;;;;;5079717;28;20401;-87
2022/04/06 03:27:23;;;;;;;6.63;5.93;;;8.90;99.90;;;;;;5097991;28;20519;-86
2022/04/06 03:29:49;;;;;;;5.87;5.37;;;9.50;99.90;;;;;;5097496;28;20420;-86
2022/04/06 03:32:15;;;;;;;6.03;5.53;;;9.00;99.90;;;;;;5096753;28;20527;-87
2022/04/06 03:34:41;;;;;;;7.82;7.13;;;9.10;99.90;;;;;;5078837;28;20473;-87
2022/04/06 03:37:07;;;;;;;7.45;6.75;;;9.10;99.90;;;;;;5096955;28;20409;-87
2022/04/06 03:39:33;;;;;;;6.97;6.43;;;9.00;99.90;;;;;;5097404;28;20392;-86
2022/04/06 03:41:58;;;;;;;7.03;6.33;;;9.10;99.90;;;;;;5096604;28;20382;-87
2022/04/06 03:44:24;;;;;;;6.90;6.20;;;9.20;99.90;;;;;;5096547;28;20872;-87
2022/04/06 03:46:50;;;;;;;6.00;5.50;;;9.10;99.90;;;;;;5096498;28;20769;-86
2022/04/06 03:49:16;;;;;;;5.80;5.30;;;9.30;99.90;;;;;;5079322;28;20382;-87
2022/04/06 03:51:43;;;;;;;6.17;5.67;;;10.40;99.90;;;;;;5098589;28;20373;-87
2022/04/06 03:54:09;;;;;;;6.10;5.60;;;9.50;99.90;;;;;;5097739;28;20453;-86
2022/04/06 03:56:35;;;;;;;6.88;6.30;;;10.00;99.90;;;;;;5095845;28;20455;-86
2022/04/06 03:59:00;;;;;;;6.60;6.00;;;9.30;99.90;;;;;;5096158;28;20824;-87
2022/04/06 04:01:28;;;;;;;6.40;5.88;;;9.30;99.90;;;;;;5093607;28;20404;-87
2022/04/06 04:03:54;;;;;;;6.57;6.03;;;9.10;99.90;;;;;;5094870;28;20386;-87
2022/04/06 04:06:19;;;;;;;6.50;6.00;;;9.70;99.90;;;;;;5095319;28;20467;-86
2022/04/06 04:08:45;;;;;;;5.97;5.47;;;9.00;99.90;;;;;;5084080;28;20405;-87
2022/04/06 04:11:10;;;;;;;6.50;5.90;;;9.80;99.90;;;;;;5065697;28;20380;-87
2022/04/06 04:13:36;;;;;;;9.27;8.47;;;9.00;99.90;;;;;;5095601;28;20385;-86
2022/04/06 04:16:02;;;;;;;6.30;5.70;;;9.30;99.90;;;;;;5095729;28;20407;-86
2022/04/06 04:18:27;;;;;;;6.47;5.80;;;9.10;99.90;;;;;;5095771;28;20857;-86
2022/04/06 04:21:32;;;;;;;6.17;5.67;;;9.10;99.90;;;;;;5095749;28;20449;-86
2022/04/06 04:23:39;;;;;;;6.13;5.53;;;9.10;99.90;;;;;;5095466;28;20394;-87
2022/04/06 04:26:04;;;;;;;5.90;5.50;;;9.10;99.90;;;;;;5077812;28;20401;-86
2022/04/06 04:28:30;;;;;;;7.50;6.50;;;9.10;99.90;;;;;;5095748;28;20413;-87
2022/04/06 04:30:55;;;;;;;6.53;6.03;;;9.70;99.90;;;;;;5095709;28;20385;-87
2022/04/06 04:33:21;;;;;;;6.80;6.20;;;9.10;99.90;;;;;;5077710;28;20899;-87
2022/04/06 04:35:47;;;;;;;6.80;6.30;;;9.10;99.90;;;;;;5098005;28;20425;-87
2022/04/06 04:38:13;;;;;;;6.30;5.80;;;9.10;99.90;;;;;;5098026;28;20397;-87
2022/04/06 04:40:39;;;;;;;6.75;5.97;;;9.00;99.90;;;;;;5095514;28;20398;-86
2022/04/06 04:43:05;;;;;;;6.27;5.77;;;9.70;99.90;;;;;;5087132;28;20389;-86
2022/04/06 04:45:30;;;;;;;6.67;6.17;;;8.90;99.90;;;;;;5096977;28;20499;-86
2022/04/06 04:47:57;;;;;;;6.33;5.83;;;8.90;99.90;;;;;;5095948;28;20394;-87
2022/04/06 04:50:23;;;;;;;6.30;5.80;;;8.90;99.90;;;;;;5093018;28;20392;-86
2022/04/06 04:52:49;;;;;;;6.33;5.73;;;9.00;99.90;;;;;;5093273;28;20392;-85
2022/04/06 04:55:14;;;;;;;6.63;6.10;;;9.60;99.90;;;;;;5080084;28;20394;-86
2022/04/06 04:57:40;;;;;;;6.60;6.10;;;9.80;99.90;;;;;;5097187;28;20378;-86
2022/04/06 05:00:09;;;;;;;6.35;5.85;;;8.90;99.90;;;;;;5099472;28;20412;-87
2022/04/06 05:02:36;;;;;;;7.13;6.53;;;8.90;99.90;;;;;;5096645;28;20386;-86
2022/04/06 05:05:04;;;;;;;6.82;6.22;;;9.00;99.90;;;;;;5098004;28;20404;-87
2022/04/06 05:07:29;;;;;;;6.80;6.20;;;8.90;99.90;;;;;;5079478;28;20425;-87
2022/04/06 05:09:55;;;;;;;7.03;6.43;;;8.90;99.90;;;;;;5098638;28;20378;-86
2022/04/06 05:12:21;;;;;;;7.07;6.37;;;9.90;99.90;;;;;;5095908;28;20417;-85
2022/04/06 05:14:47;;;;;;;6.25;5.75;;;9.30;99.90;;;;;;5100546;28;20891;-85
2022/04/06 05:17:12;;;;;;;5.95;5.55;;;9.00;99.90;;;;;;5101574;28;20386;-87
2022/04/06 05:19:38;;;;;;;5.88;5.38;;;9.60;99.90;;;;;;5103636;28;20389;-86
2022/04/06 05:22:04;;;;;;;6.15;5.65;;;8.90;99.90;;;;;;5100871;28;20757;-86
2022/04/06 05:24:30;;;;;;;6.10;5.55;;;8.90;99.90;;;;;;5079773;28;20424;-86
2022/04/06 05:26:55;;;;;;;7.67;5.53;;;9.00;99.90;;;;;;5099118;28;20402;-86
2022/04/06 05:29:21;;;;;;;5.73;5.23;;;9.10;99.90;;;;;;5099774;28;20416;-86
2022/04/06 05:31:47;;;;;;;5.93;5.50;;;9.00;99.90;;;;;;5100403;28;20860;-85
2022/04/06 05:34:12;;;;;;;8.60;7.77;;;9.00;99.90;;;;;;5100569;28;20461;-87
2022/04/06 05:36:42;;;;;;;6.20;5.37;;;8.90;99.90;;;;;;5082051;28;20398;-86
2022/04/06 05:39:08;;;;;;;6.03;5.53;;;9.00;99.90;;;;;;5101221;28;20936;-86
2022/04/06 05:41:34;;;;;;;5.75;5.30;;;9.00;99.90;;;;;;5101275;28;20386;-85
2022/04/06 05:43:59;;;;;;;5.70;5.30;;;9.00;99.90;;;;;;5099647;28;20949;-86
2022/04/06 05:46:25;;;;;;;5.90;5.40;;;9.10;99.90;;;;;;5093815;28;21007;-84
2022/04/06 05:48:51;;;;;;;6.70;5.25;;;9.00;99.90;;;;;;5099306;28;20384;-86
2022/04/06 05:51:16;;;;;;;5.97;5.40;;;9.40;99.90;;;;;;5099645;28;20401;-85
2022/04/06 05:53:42;;;;;;;5.90;5.30;;;9.00;99.90;;;;;;5099970;28;20397;-86
2022/04/06 05:56:08;;;;;;;6.03;5.53;;;9.10;99.90;;;;;;5101472;28;20394;-86
2022/04/06 05:58:33;;;;;;;5.93;5.43;;;9.00;99.90;;;;;;5101322;28;20477;-86
2022/04/06 06:00:59;;;;;;;5.70;5.20;;;9.10;99.90;;;;;;5094117;28;20412;-86
2022/04/06 06:03:25;;;;;;;7.70;4.95;;;9.20;99.90;;;;;;5099336;28;20443;-86
2022/04/06 06:05:51;;;;;;;5.53;4.93;;;9.30;99.90;;;;;;5100387;28;20426;-85
2022/04/06 06:08:16;;;;;;;5.23;4.83;;;9.30;99.90;;;;;;5083045;28;20895;-86
2022/04/06 06:10:42;;;;;;;5.37;4.90;;;9.30;99.90;;;;;;5101305;28;20381;-86
2022/04/06 06:13:08;;;;;;;5.93;5.43;;;10.00;99.90;;;;;;5102858;28;20787;-86
2022/04/06 06:15:33;;;;;;;5.83;5.23;;;9.40;99.90;;;;;;5102639;28;20424;-86
2022/04/06 06:17:59;;;;;;;5.93;5.40;;;9.40;99.90;;;;;;5099853;28;20440;-87
2022/04/06 06:20:27;;;;;;;6.00;5.50;;;9.30;99.90;;;;;;5099608;28;20386;-86
2022/04/06 06:22:52;;;;;;;6.85;5.68;;;9.30;99.90;;;;;;5091891;28;20453;-86
2022/04/06 06:25:18;;;;;;;5.70;5.20;;;9.30;99.90;;;;;;5093458;28;20519;-85
2022/04/06 06:27:46;;;;;;;5.70;5.20;;;9.30;99.90;;;;;;5094800;28;20790;-86
2022/04/06 06:30:13;;;;;;;6.07;5.57;;;9.30;99.90;;;;;;5089943;28;20480;-84
2022/04/06 06:32:40;;;;;;;5.68;5.18;;;9.30;99.90;;;;;;5099523;28;20463;-86
2022/04/06 06:35:10;;;;;;;5.85;5.40;;;9.50;99.90;;;;;;5099631;28;20389;-85
2022/04/06 06:37:36;;;;;;;5.80;5.20;;;9.30;99.90;;;;;;5096483;28;20450;-86
2022/04/06 06:40:03;;;;;;;5.93;5.40;;;9.30;99.90;;;;;;5102639;28;20472;-86
2022/04/06 06:42:29;;;;;;;5.22;4.78;;;9.30;99.90;;;;;;5097348;28;20530;-85
2022/04/06 06:44:55;;;;;;;5.80;5.20;;;9.40;99.90;;;;;;5103384;28;20844;-86
2022/04/06 06:47:20;;;;;;;5.50;5.00;;;10.00;99.90;;;;;;5104002;28;20378;-86
2022/04/06 06:49:46;;;;;;;5.57;5.15;;;9.40;99.90;;;;;;5103798;28;20382;-86
2022/04/06 06:52:15;;;;;;;5.40;5.00;;;9.40;99.90;;;;;;5106652;28;20398;-86
2022/04/06 06:54:41;;;;;;;5.47;4.97;;;9.90;99.90;;;;;;5103627;28;20386;-86
2022/04/06 06:57:06;;;;;;;4.93;4.53;;;9.40;99.90;;;;;;5107486;28;20477;-85
2022/04/06 06:59:32;;;;;;;5.70;5.20;;;9.60;99.90;;;;;;5107963;28;20393;-86
2022/04/06 07:01:58;;;;;;;6.40;5.80;;;9.50;99.90;;;;;;5105971;28;20470;-86
2022/04/06 07:04:24;;;;;;;5.97;5.47;;;9.50;99.90;;;;;;5106277;28;20386;-86
2022/04/06 07:06:50;;;;;;;5.40;4.97;;;9.50;99.90;;;;;;5091890;28;20402;-86
2022/04/06 07:09:16;;;;;;;5.63;5.10;;;9.50;99.90;;;;;;5104646;28;20477;-86
2022/04/06 07:11:42;;;;;;;5.25;4.85;;;9.60;99.90;;;;;;5085264;28;20718;-86
2022/04/06 07:14:08;;;;;;;5.10;4.70;;;9.70;99.90;;;;;;5104688;28;20389;-87
2022/04/06 07:16:33;;;;;;;5.03;4.57;;;9.80;99.90;;;;;;5104843;28;20378;-85
2022/04/06 07:18:59;;;;;;;5.20;4.78;;;9.90;99.90;;;;;;5103169;28;20378;-87
2022/04/06 07:21:25;;;;;;;4.75;4.35;;;9.90;99.90;;;;;;5096073;28;20411;-86
2022/04/06 07:23:51;;;;;;;5.10;4.60;;;10.00;99.90;;;;;;5085960;28;20398;-86
2022/04/06 07:26:17;;;;;;;4.60;4.30;;;10.00;99.90;;;;;;5104187;28;20402;-86
2022/04/06 07:28:46;;;;;;;4.70;4.40;;;10.10;99.90;;;;;;5103824;28;20382;-86
2022/04/06 07:31:12;;;;;;;5.32;4.20;;;10.10;99.90;;;;;;5102560;28;20386;-87
2022/04/06 07:33:38;;;;;;;3.92;3.63;;;10.20;99.90;;;;;;5102803;28;20398;-87
2022/04/06 07:36:05;;;;;;;5.10;4.30;;;10.20;99.90;;;;;;5103841;28;20399;-86
2022/04/06 07:38:31;;;;;;;4.50;4.10;;;10.20;99.90;;;;;;5111331;28;20377;-87
2022/04/06 07:40:57;;;;;;;3.75;3.45;;;10.30;99.90;;;;;;5115523;28;20408;-86
2022/04/06 07:43:23;;;;;;;4.25;3.88;;;10.20;99.90;;;;;;5102182;28;20382;-86
2022/04/06 07:45:49;;;;;;;4.10;3.80;;;10.20;99.90;;;;;;5103433;28;20764;-86
2022/04/06 07:48:15;;;;;;;4.13;3.83;;;10.20;99.90;;;;;;5104087;28;20382;-86
2022/04/06 07:50:40;;;;;;;3.80;3.50;;;10.40;99.90;;;;;;5099889;28;20408;-86
2022/04/06 07:53:06;;;;;;;3.30;3.10;;;10.40;99.90;;;;;;5102549;28;20382;-87
2022/04/06 07:55:33;;;;;;;4.20;3.43;;;10.40;99.90;;;;;;5100482;28;20428;-86
2022/04/06 07:57:59;;;;;;;4.28;3.72;;;10.60;99.90;;;;;;5111607;28;20401;-87
2022/04/06 08:00:25;;;;;;;3.78;3.47;;;10.70;99.90;;;;;;5101613;28;20382;-86
2022/04/06 08:02:51;;;;;;;4.00;3.50;;;10.70;99.90;;;;;;5099820;28;20465;-86
2022/04/06 08:05:17;;;;;;;4.10;3.70;;;10.80;99.90;;;;;;5082465;28;20405;-86
2022/04/06 08:07:44;;;;;;;3.70;3.40;;;10.70;99.90;;;;;;5102030;28;20377;-86
2022/04/06 08:10:13;;;;;;;3.58;3.28;;;10.60;99.90;;;;;;5101498;28;20378;-86
2022/04/06 08:12:39;;;;;;;3.17;2.97;;;10.60;99.90;;;;;;5107047;28;20385;-87
2022/04/06 08:15:06;;;;;;;3.20;3.00;;;10.60;99.90;;;;;;5110149;28;20382;-85
2022/04/06 08:17:33;;;;;;;3.53;2.90;;;10.70;99.90;;;;;;5101452;28;20378;-85
2022/04/06 08:19:58;;;;;;;3.63;2.88;;;10.80;99.90;;;;;;5112835;28;20376;-87
2022/04/06 08:22:24;;;;;;;4.20;2.90;;;10.80;99.90;;;;;;5100787;28;20393;-86
2022/04/06 08:24:49;;;;;;;3.10;2.90;;;11.00;99.90;;;;;;5100446;28;20374;-86
2022/04/06 08:27:16;;;;;;;2.90;2.70;;;10.70;99.90;;;;;;5098346;28;20896;-86
2022/04/06 08:29:41;;;;;;;4.05;3.25;;;10.80;99.90;;;;;;5110461;28;20791;-86
2022/04/06 08:32:07;;;;;;;3.30;3.00;;;10.80;99.90;;;;;;5102360;28;20401;-86
2022/04/06 08:34:32;;;;;;;2.90;2.70;;;10.80;99.90;;;;;;5090456;28;20461;-86
2022/04/06 08:36:58;;;;;;;3.20;2.90;;;10.90;99.90;;;;;;5101881;28;20746;-86
2022/04/06 08:39:24;;;;;;;3.10;2.80;;;11.00;99.90;;;;;;5108879;28;20374;-86
2022/04/06 08:41:49;;;;;;;3.07;2.87;;;11.30;99.90;;;;;;5096307;28;20385;-85
2022/04/06 08:44:16;;;;;;;2.70;2.50;;;11.10;99.90;;;;;;5088331;28;20503;-85
2022/04/06 08:46:45;;;;;;;2.97;2.67;;;11.30;99.90;;;;;;5109228;28;21008;-86
2022/04/06 08:49:12;;;;;;;2.60;2.40;;;11.30;99.90;;;;;;5104392;28;20408;-86
2022/04/06 08:51:40;;;;;;;3.38;3.10;;;11.50;99.90;;;;;;5082514;28;20385;-86
2022/04/06 08:54:05;;;;;;;2.85;2.65;;;11.50;99.90;;;;;;5103517;28;20378;-85
2022/04/06 08:56:31;;;;;;;3.00;2.80;;;11.40;99.90;;;;;;5121540;28;20425;-86
2022/04/06 08:58:58;;;;;;;2.80;2.60;;;11.50;99.90;;;;;;5096863;28;20377;-86
2022/04/06 09:01:24;;;;;;;2.63;2.42;;;11.70;99.90;;;;;;5098596;28;20448;-85
2022/04/06 09:03:49;;;;;;;2.70;2.50;;;12.00;99.90;;;;;;5083417;28;20944;-86
2022/04/06 09:06:16;;;;;;;3.03;2.60;;;12.10;99.90;;;;;;5100476;28;20397;-87
2022/04/06 09:08:44;;;;;;;2.42;2.22;;;12.30;99.90;;;;;;5102452;28;20465;-87
2022/04/06 09:11:18;;;;;;;2.60;2.40;;;12.30;99.90;;;;;;5101413;28;20389;-87
2022/04/06 09:13:46;;;;;;;3.83;3.53;;;12.60;99.90;;;;;;5090921;28;20382;-87
2022/04/06 09:16:15;;;;;;;3.40;2.80;;;12.50;99.90;;;;;;5107419;28;20877;-87
2022/04/06 09:18:44;;;;;;;2.70;2.40;;;12.30;99.90;;;;;;5080401;28;20775;-86
2022/04/06 09:21:14;;;;;;;3.17;2.40;;;12.30;99.90;;;;;;5100439;28;20381;-86
2022/04/06 09:23:40;;;;;;;3.30;2.30;;;12.20;99.90;;;;;;5121042;28;20444;-87
2022/04/06 09:26:10;;;;;;;2.47;2.25;;;12.40;99.90;;;;;;5105177;28;20494;-86
2022/04/06 09:28:49;;;;;;;2.33;2.13;;;12.40;99.90;;;;;;5114430;28;20382;-86
2022/04/06 09:31:17;;;;;;;2.10;2.00;;;12.40;99.90;;;;;;5103120;28;20412;-86
2022/04/06 09:33:59;;;;;;;2.20;1.60;;;12.40;99.90;;;;;;5118425;28;20416;-86
2022/04/06 09:36:28;;;;;;;1.98;1.70;;;12.60;99.90;;;;;;5114188;28;20382;-86
2022/04/06 09:38:54;;;;;;;2.28;1.70;;;12.60;99.90;;;;;;5100748;28;20400;-86
2022/04/06 09:41:20;;;;;;;2.55;1.98;;;12.70;99.90;;;;;;5100669;28;20386;-86
2022/04/06 09:43:47;;;;;;;1.95;1.85;;;12.70;99.90;;;;;;5099889;28;20718;-87
2022/04/06 09:49:16;;;;;;;2.08;1.55;;;13.10;99.90;;;;;;5097834;28;20736;-86
2022/04/06 09:51:51;;;;;;;2.20;1.85;;;13.50;99.90;;;;;;5081359;28;20390;-87
2022/04/06 09:54:17;;;;;;;1.80;1.60;;;13.40;99.90;;;;;;5101278;28;20857;-86
2022/04/06 09:56:44;;;;;;;1.60;1.50;;;13.40;99.90;;;;;;5098029;28;20397;-86
2022/04/06 09:59:14;;;;;;;1.73;1.50;;;13.60;99.90;;;;;;5097023;28;20469;-86
2022/04/06 10:01:44;;;;;;;1.70;1.60;;;13.80;99.90;;;;;;5097389;28;20894;-86
2022/04/06 10:04:12;;;;;;;1.58;1.48;;;13.90;99.90;;;;;;5097453;28;20389;-86
2022/04/06 10:06:40;;;;;;;1.63;1.52;;;14.00;99.90;;;;;;5097257;28;20405;-86
2022/04/06 10:09:11;;;;;;;1.60;1.50;;;13.90;99.90;;;;;;5078607;28;20390;-86
2022/04/06 10:11:38;;;;;;;2.35;1.88;;;14.00;99.90;;;;;;5096447;28;20370;-86
2022/04/06 10:14:07;;;;;;;1.80;1.70;;;14.10;99.90;;;;;;5105057;28;20712;-86
2022/04/06 10:16:36;;;;;;;1.67;1.58;;;14.20;99.90;;;;;;5117797;28;20395;-86
2022/04/06 10:19:02;;;;;;;1.70;1.60;;;14.10;99.90;;;;;;5117215;28;20423;-86
2022/04/06 10:21:37;;;;;;;1.70;1.50;;;14.30;99.90;;;;;;5117252;28;20392;-86
2022/04/06 10:24:37;;;;;;;1.58;1.33;;;14.50;99.90;;;;;;5117502;28;20408;-86
2022/04/06 10:27:11;;;;;;;1.70;1.50;;;14.60;99.90;;;;;;5097114;28;20398;-86
2022/04/06 10:30:14;;;;;;;2.45;1.48;;;14.80;99.90;;;;;;5095393;28;20956;-86
2022/04/06 10:32:42;;;;;;;1.60;1.50;;;14.90;99.90;;;;;;5084146;28;20502;-86
2022/04/06 10:35:16;;;;;;;2.30;1.40;;;15.00;99.90;;;;;;5095680;28;20420;-86
2022/04/06 10:37:55;;;;;;;1.95;1.50;;;15.10;99.90;;;;;;5097026;28;20382;-85
2022/04/06 10:40:21;;;;;;;3.10;1.40;;;15.30;99.90;;;;;;5097590;28;20879;-85
2022/04/06 10:42:47;;;;;;;1.40;1.30;;;14.90;99.90;;;;;;5096806;28;20386;-86
2022/04/06 10:45:25;;;;;;;1.60;1.50;;;15.20;99.90;;;;;;5078686;28;20403;-84
2022/04/06 10:48:13;;;;;;;1.48;1.25;;;15.60;99.90;;;;;;5096445;28;20473;-85
2022/04/06 10:50:42;;;;;;;1.85;1.27;;;15.70;99.90;;;;;;5072215;28;20384;-87
2022/04/06 10:53:27;;;;;;;1.55;1.20;;;15.90;99.90;;;;;;5089523;28;20414;-86
2022/04/06 10:55:57;;;;;;;1.40;1.17;;;16.10;99.90;;;;;;5094616;28;20433;-86
2022/04/06 10:58:25;;;;;;;1.30;1.20;;;15.70;99.90;;;;;;5095837;28;20397;-86
2022/04/06 11:01:13;;;;;;;1.30;1.20;;;15.70;99.90;;;;;;5100869;28;20376;-87
2022/04/06 11:03:44;;;;;;;0.80;0.80;;;16.20;99.90;;;;;;5081999;28;20469;-87
2022/04/06 11:06:10;;;;;;;1.15;0.93;;;16.30;99.90;;;;;;5094712;28;20499;-87
2022/04/06 11:11:47;;;;;;;2.80;1.10;;;16.70;99.90;;;;;;5096816;28;20365;-86
2022/04/06 11:14:33;;;;;;;1.67;1.48;;;16.80;99.90;;;;;;5105487;28;20378;-86
2022/04/06 11:16:59;;;;;;;2.93;1.10;;;16.10;99.90;;;;;;5096542;28;20952;-86
2022/04/06 11:19:26;;;;;;;1.20;1.10;;;16.10;99.90;;;;;;5106269;28;20514;-87
2022/04/06 11:21:55;;;;;;;2.42;0.98;;;16.50;99.90;;;;;;5096637;28;20410;-86
2022/04/06 11:24:27;;;;;;;1.73;1.30;;;16.60;99.90;;;;;;5096355;28;20393;-86
2022/04/06 11:26:54;;;;;;;1.80;1.40;;;16.20;99.90;;;;;;5096749;28;20891;-86
2022/04/06 11:29:25;;;;;;;1.20;1.10;;;16.20;99.90;;;;;;5092755;28;20386;-87
2022/04/06 11:32:04;;;;;;;2.00;1.20;;;16.30;99.90;;;;;;5094472;28;20370;-87
2022/04/06 11:34:38;;;;;;;1.20;1.10;;;16.60;99.90;;;;;;5094448;28;20471;-86
2022/04/06 11:37:07;;;;;;;2.15;1.10;;;17.00;99.90;;;;;;5076146;28;20414;-87
2022/04/06 11:39:33;;;;;;;3.70;1.20;;;17.20;99.90;;;;;;5094471;28;20437;-87
2022/04/06 11:42:00;;;;;;;2.30;0.90;;;16.70;99.90;;;;;;5108397;28;20414;-87
2022/04/06 11:44:30;;;;;;;1.10;0.90;;;16.70;99.90;;;;;;5077932;28;20468;-86
2022/04/06 11:46:56;;;;;;;2.03;1.20;;;16.70;99.90;;;;;;5101737;28;20493;-87
2022/04/06 11:49:27;;;;;;;1.17;1.08;;;17.00;99.90;;;;;;5086730;28;20408;-88
2022/04/06 11:51:54;;;;;;;1.52;1.17;;;17.10;99.90;;;;;;5093691;28;20390;-87
2022/04/06 11:54:21;;;;;;;2.13;1.13;;;17.00;99.90;;;;;;5075960;28;20404;-87
2022/04/06 11:56:55;;;;;;;1.57;1.40;;;16.90;99.90;;;;;;5075951;28;20477;-88
2022/04/06 11:59:22;;;;;;;2.60;1.30;;;17.20;99.90;;;;;;5093877;28;20405;-87
2022/04/06 12:01:50;;;;;;;1.85;1.10;;;17.50;99.90;;;;;;5088808;28;20386;-87
2022/04/06 12:04:24;;;;;;;1.40;1.13;;;17.10;99.90;;;;;;5071298;28;20390;-88
2022/04/06 12:06:54;;;;;;;1.10;1.00;;;16.90;99.90;;;;;;5093904;28;20402;-87
2022/04/06 12:09:23;;;;;;;1.40;1.30;;;16.90;99.90;;;;;;5097354;28;20378;-87
2022/04/06 12:11:53;;;;;;;2.10;1.27;;;16.80;99.90;;;;;;5093847;28;20978;-88
2022/04/06 12:14:19;;;;;;;1.83;1.50;;;16.50;99.90;;;;;;5094950;28;20386;-88
2022/04/06 12:16:49;;;;;;;1.52;1.10;;;17.00;99.90;;;;;;5083834;28;20417;-87
2022/04/06 12:19:16;;;;;;;2.67;1.00;;;17.40;99.90;;;;;;5096681;28;20386;-87
2022/04/06 12:21:46;;;;;;;1.40;0.80;;;17.30;99.90;;;;;;5098887;28;20397;-86
2022/04/06 12:24:13;;;;;;;1.63;1.20;;;16.60;99.90;;;;;;5098483;28;20384;-87
2022/04/06 12:26:54;;;;;;;1.20;1.00;;;16.80;99.90;;;;;;5090404;28;20888;-89
2022/04/06 12:29:20;;;;;;;1.27;1.10;;;17.20;99.90;;;;;;5093712;28;20418;-87
2022/04/06 12:31:46;;;;;;;1.30;1.20;;;17.20;99.90;;;;;;5089327;28;20376;-87
2022/04/06 12:34:37;;;;;;;1.20;1.10;;;17.00;99.90;;;;;;5093636;28;21076;-86
2022/04/06 12:39:57;;;;;;;1.80;0.70;;;17.30;99.90;;;;;;5107267;28;20890;-88
2022/04/06 12:42:23;;;;;;;0.95;0.88;;;17.70;99.90;;;;;;5101366;28;20392;-87
2022/04/06 12:45:01;;;;;;;0.60;0.60;;;17.40;99.90;;;;;;5092312;28;20384;-86
2022/04/06 12:47:27;;;;;;;0.60;0.57;;;17.60;99.90;;;;;;5106700;28;20895;-87
2022/04/06 12:50:12;;;;;;;1.75;1.15;;;17.40;99.90;;;;;;5094303;28;20386;-86
2022/04/06 12:52:38;;;;;;;0.70;0.70;;;17.80;99.90;;;;;;5094595;28;20386;-86
2022/04/06 12:55:06;;;;;;;0.80;0.75;;;17.30;99.90;;;;;;5107485;28;20487;-86
2022/04/06 12:57:34;;;;;;;1.70;0.80;;;17.50;99.90;;;;;;5095328;28;20393;-86
2022/04/06 13:00:01;;;;;;;1.17;0.70;;;17.50;99.90;;;;;;5107893;28;20408;-86
2022/04/06 13:02:38;;;;;;;0.90;0.63;;;17.40;99.90;;;;;;5108885;28;20382;-85
2022/04/06 13:05:09;;;;;;;1.52;0.80;;;17.20;99.90;;;;;;5123548;28;20398;-86
2022/04/06 13:07:42;;;;;;;0.90;0.80;;;17.20;99.90;;;;;;5111176;28;20465;-86
2022/04/06 13:10:16;;;;;;;1.20;0.80;;;17.30;99.90;;;;;;5119551;28;20363;-86